Time;durP1;ratioP1;P1;durP2;ratioP2;P2;SDS_P1;SDS_P2;PMS_P1;PMS_P2;Temp;Humidity;BMP_temperature;BMP_pressure;BME280_temperature;BME280_humidity;BME280_pressure;Samples;Min_cycle;Max_cycle;Signal;HPM_P1;HPM_P2
2021/08/27 00:01:18;;;;;;;10.00;4.60;;;14.80;87.30;;;;;;5047074;28;20177;-72
2021/08/27 00:03:44;;;;;;;6.70;3.70;;;14.80;87.40;;;;;;5043633;28;20242;-73
2021/08/27 00:06:09;;;;;;;14.67;3.80;;;14.80;87.40;;;;;;5046243;28;20212;-73
2021/08/27 00:08:35;;;;;;;8.20;3.70;;;14.80;87.40;;;;;;5049122;28;20192;-72
2021/08/27 00:11:01;;;;;;;5.33;2.97;;;14.70;87.70;;;;;;5044500;28;20569;-73
2021/08/27 00:13:27;;;;;;;7.23;3.43;;;14.70;87.80;;;;;;5051876;28;20236;-72
2021/08/27 00:15:52;;;;;;;8.53;3.60;;;14.70;88.00;;;;;;5043354;28;20180;-73
2021/08/27 00:18:18;;;;;;;5.10;3.53;;;14.70;88.10;;;;;;5046631;28;20427;-73
2021/08/27 00:20:44;;;;;;;8.63;3.67;;;14.80;87.80;;;;;;5052865;28;20181;-73
2021/08/27 00:23:10;;;;;;;5.73;3.33;;;14.80;87.80;;;;;;5045727;28;20209;-72
2021/08/27 00:25:36;;;;;;;9.43;3.80;;;14.80;87.40;;;;;;5059692;28;21060;-73
2021/08/27 00:28:05;;;;;;;8.53;3.57;;;14.80;87.40;;;;;;5055836;28;20192;-72
2021/08/27 00:30:31;;;;;;;5.10;3.33;;;14.80;87.70;;;;;;5047115;28;20264;-73
2021/08/27 00:32:57;;;;;;;7.53;3.93;;;14.70;87.80;;;;;;5050905;28;20449;-72
2021/08/27 00:35:22;;;;;;;4.80;3.13;;;14.70;87.80;;;;;;5049267;28;20434;-72
2021/08/27 00:37:48;;;;;;;4.60;2.80;;;14.70;88.00;;;;;;5044953;28;20764;-73
2021/08/27 00:40:14;;;;;;;8.17;3.60;;;14.80;87.80;;;;;;5046756;28;20246;-72
2021/08/27 00:42:40;;;;;;;4.93;3.10;;;14.80;87.60;;;;;;5047437;28;20204;-73
2021/08/27 00:45:07;;;;;;;5.40;3.40;;;14.80;87.70;;;;;;5042962;28;20638;-73
2021/08/27 00:47:33;;;;;;;7.00;3.20;;;14.90;87.70;;;;;;5047761;28;20419;-73
2021/08/27 00:49:59;;;;;;;4.80;2.90;;;14.90;87.60;;;;;;5042110;28;20429;-73
2021/08/27 00:52:25;;;;;;;7.23;3.73;;;14.90;87.30;;;;;;5046150;28;20674;-73
2021/08/27 00:54:52;;;;;;;5.13;3.50;;;14.90;87.30;;;;;;5050519;28;20507;-72
2021/08/27 00:57:18;;;;;;;5.70;3.53;;;14.90;87.30;;;;;;5045026;28;20431;-73
2021/08/27 00:59:44;;;;;;;7.40;3.47;;;14.90;87.80;;;;;;5048409;28;20498;-72
2021/08/27 01:02:10;;;;;;;4.80;3.30;;;14.90;87.70;;;;;;5042469;28;20455;-73
2021/08/27 01:04:38;;;;;;;4.60;2.97;;;15.00;87.30;;;;;;5047780;28;20489;-74
2021/08/27 01:07:17;;;;;;;9.13;4.03;;;15.10;87.10;;;;;;5048806;28;20787;-73
2021/08/27 01:10:05;;;;;;;6.37;3.60;;;15.10;86.90;;;;;;5045114;28;20416;-72
2021/08/27 01:13:09;;;;;;;7.33;3.90;;;15.00;87.10;;;;;;5043469;28;20441;-74
2021/08/27 01:15:56;;;;;;;6.90;3.30;;;15.00;87.30;;;;;;5037099;28;20543;-74
2021/08/27 01:18:46;;;;;;;6.50;3.60;;;15.10;87.60;;;;;;5046819;28;20416;-73
2021/08/27 01:21:35;;;;;;;8.13;4.07;;;15.10;87.70;;;;;;5047634;28;20435;-72
2021/08/27 01:24:04;;;;;;;6.03;3.90;;;15.10;87.70;;;;;;5042108;28;20423;-73
2021/08/27 01:26:34;;;;;;;5.83;3.60;;;15.10;88.00;;;;;;5044981;28;20430;-73
2021/08/27 01:29:02;;;;;;;7.23;3.57;;;15.00;88.30;;;;;;5040661;28;20498;-72
2021/08/27 01:31:46;;;;;;;7.63;4.13;;;15.10;88.40;;;;;;5044813;28;20995;-72
2021/08/27 01:34:34;;;;;;;5.87;3.80;;;15.10;88.00;;;;;;5045764;28;20755;-74
2021/08/27 01:37:01;;;;;;;11.43;4.57;;;15.10;88.40;;;;;;5042099;28;20435;-73
2021/08/27 01:39:44;;;;;;;6.80;3.93;;;15.10;88.40;;;;;;5045049;28;20416;-73
2021/08/27 01:42:13;;;;;;;7.17;3.67;;;15.10;88.00;;;;;;5046831;28;20443;-72
2021/08/27 01:44:43;;;;;;;6.80;3.90;;;15.10;88.40;;;;;;5043996;28;20463;-73
2021/08/27 01:47:11;;;;;;;8.80;3.90;;;15.10;88.10;;;;;;5044858;28;20523;-74
2021/08/27 01:49:38;;;;;;;8.67;3.97;;;15.10;88.30;;;;;;5043658;28;20439;-73
2021/08/27 01:52:07;;;;;;;8.33;4.23;;;15.20;88.10;;;;;;5043631;28;20444;-73
2021/08/27 01:54:35;;;;;;;10.97;4.40;;;15.20;88.10;;;;;;5051016;28;20423;-74
2021/08/27 01:57:01;;;;;;;13.67;4.83;;;15.20;88.10;;;;;;5045052;28;20449;-73
2021/08/27 01:59:33;;;;;;;10.60;3.37;;;15.20;88.10;;;;;;5049031;28;20443;-73
2021/08/27 02:02:00;;;;;;;6.57;3.57;;;15.20;88.60;;;;;;5037849;28;20455;-73
2021/08/27 02:04:26;;;;;;;6.23;3.50;;;15.10;88.60;;;;;;5046912;28;20557;-72
2021/08/27 02:06:52;;;;;;;8.50;4.67;;;15.10;88.90;;;;;;5044887;28;20446;-73
2021/08/27 02:09:19;;;;;;;10.17;4.30;;;15.10;89.00;;;;;;5046004;28;20422;-75
2021/08/27 02:11:46;;;;;;;9.03;4.23;;;15.10;89.00;;;;;;5041327;28;20447;-73
2021/08/27 02:14:14;;;;;;;8.50;4.33;;;15.10;89.20;;;;;;5050989;28;20785;-74
2021/08/27 02:16:39;;;;;;;6.47;3.40;;;15.10;89.30;;;;;;5047185;28;20473;-73
2021/08/27 02:19:05;;;;;;;6.77;3.80;;;15.20;89.00;;;;;;5045999;28;20427;-74
2021/08/27 02:21:38;;;;;;;8.90;3.70;;;15.20;89.20;;;;;;5049032;28;20241;-73
2021/08/27 02:24:08;;;;;;;8.63;4.60;;;15.10;89.20;;;;;;5044518;28;20241;-72
2021/08/27 02:26:36;;;;;;;6.30;3.80;;;15.10;89.50;;;;;;5044803;28;20768;-73
2021/08/27 02:29:02;;;;;;;11.17;4.53;;;15.10;89.60;;;;;;5040075;28;20468;-73
2021/08/27 02:31:29;;;;;;;5.80;4.17;;;15.10;89.50;;;;;;5035901;28;20408;-73
2021/08/27 02:33:55;;;;;;;8.40;4.13;;;15.10;89.60;;;;;;5046460;28;20407;-73
2021/08/27 02:36:22;;;;;;;13.40;5.33;;;15.10;89.70;;;;;;5042404;28;20517;-75
2021/08/27 02:38:50;;;;;;;10.13;4.80;;;15.00;89.90;;;;;;5046229;28;20415;-74
2021/08/27 02:41:16;;;;;;;9.53;4.60;;;15.00;90.00;;;;;;5040887;28;20427;-72
2021/08/27 02:43:42;;;;;;;8.70;5.30;;;14.90;90.30;;;;;;5044532;28;20952;-72
2021/08/27 02:46:07;;;;;;;6.20;4.30;;;14.80;90.70;;;;;;5046563;28;20659;-72
2021/08/27 02:48:34;;;;;;;7.73;4.47;;;14.90;90.80;;;;;;5044275;28;20179;-73
2021/08/27 02:51:10;;;;;;;8.07;5.17;;;14.90;90.80;;;;;;5044636;28;20200;-72
2021/08/27 02:53:40;;;;;;;6.37;4.37;;;14.80;90.80;;;;;;5038027;28;20436;-73
2021/08/27 02:56:13;;;;;;;8.30;3.73;;;14.90;90.90;;;;;;5044362;28;20427;-73
2021/08/27 02:58:39;;;;;;;11.50;4.50;;;14.90;90.50;;;;;;5048379;28;20934;-72
2021/08/27 03:01:09;;;;;;;8.97;4.70;;;14.90;90.70;;;;;;5045187;28;20798;-73
2021/08/27 03:03:37;;;;;;;8.10;4.63;;;14.80;90.90;;;;;;5039312;28;20431;-74
2021/08/27 03:06:15;;;;;;;6.77;4.07;;;14.90;91.00;;;;;;5043735;28;21020;-73
2021/08/27 03:08:46;;;;;;;13.00;5.43;;;14.90;91.10;;;;;;5046011;28;20423;-74
2021/08/27 03:11:21;;;;;;;11.73;5.70;;;14.80;90.80;;;;;;5048645;28;20750;-73
2021/08/27 03:14:08;;;;;;;6.03;4.57;;;14.70;91.10;;;;;;5044481;28;20422;-74
2021/08/27 03:16:38;;;;;;;9.00;4.53;;;14.80;91.40;;;;;;5039804;28;20496;-75
2021/08/27 03:19:44;;;;;;;9.33;5.20;;;14.70;91.50;;;;;;5044623;28;20529;-74
2021/08/27 03:22:24;;;;;;;9.07;5.70;;;14.60;92.00;;;;;;5048938;28;20817;-74
2021/08/27 03:24:59;;;;;;;16.33;5.70;;;14.50;92.50;;;;;;5045900;28;20454;-74
2021/08/27 03:27:30;;;;;;;9.93;5.83;;;14.50;92.80;;;;;;5045994;28;20418;-74
2021/08/27 03:30:05;;;;;;;15.80;6.47;;;14.50;92.90;;;;;;5046359;28;20419;-74
2021/08/27 03:32:31;;;;;;;11.20;5.50;;;14.50;92.90;;;;;;5042677;28;21082;-73
2021/08/27 03:34:57;;;;;;;9.10;5.73;;;14.50;93.00;;;;;;5047992;28;20514;-74
2021/08/27 03:37:24;;;;;;;13.40;5.63;;;14.50;93.20;;;;;;5045219;28;20193;-73
2021/08/27 03:39:51;;;;;;;10.67;6.30;;;14.50;93.20;;;;;;5046948;28;20568;-73
2021/08/27 03:42:18;;;;;;;11.67;6.70;;;14.50;93.20;;;;;;5042069;28;20808;-71
2021/08/27 03:44:46;;;;;;;18.20;7.80;;;14.50;93.10;;;;;;5046596;28;20455;-73
2021/08/27 03:47:14;;;;;;;12.60;6.73;;;14.50;93.20;;;;;;5048384;28;20412;-72
2021/08/27 03:49:41;;;;;;;15.53;8.07;;;14.40;93.30;;;;;;5046121;28;20419;-72
2021/08/27 03:52:08;;;;;;;15.40;8.30;;;14.50;93.30;;;;;;5045834;28;20452;-73
2021/08/27 03:54:34;;;;;;;13.13;6.40;;;14.40;93.50;;;;;;5044917;28;20502;-73
2021/08/27 03:57:02;;;;;;;14.80;6.70;;;14.40;93.50;;;;;;5049732;28;20526;-72
2021/08/27 03:59:29;;;;;;;15.03;8.50;;;14.40;93.70;;;;;;5051104;28;20423;-73
2021/08/27 04:01:55;;;;;;;17.03;7.67;;;14.40;93.60;;;;;;5041802;28;20497;-75
2021/08/27 04:04:24;;;;;;;13.60;7.27;;;14.30;93.70;;;;;;5048993;28;20429;-73
2021/08/27 04:06:58;;;;;;;14.80;8.67;;;14.30;94.00;;;;;;5046716;28;20422;-75
2021/08/27 04:09:26;;;;;;;12.23;7.27;;;14.30;94.00;;;;;;5047274;28;20429;-74
2021/08/27 04:11:52;;;;;;;22.23;8.83;;;14.30;94.00;;;;;;5045254;28;20890;-72
2021/08/27 04:14:18;;;;;;;12.60;7.70;;;14.30;93.90;;;;;;5045627;28;20502;-72
2021/08/27 04:16:44;;;;;;;16.70;8.47;;;14.30;93.90;;;;;;5043721;28;20177;-73
2021/08/27 04:19:12;;;;;;;13.83;7.20;;;14.20;93.90;;;;;;5044577;28;20454;-73
2021/08/27 04:21:38;;;;;;;15.73;7.90;;;14.30;94.10;;;;;;5048230;28;20418;-73
2021/08/27 04:24:05;;;;;;;16.20;7.80;;;14.30;93.80;;;;;;5044198;28;20439;-73
2021/08/27 04:26:31;;;;;;;18.63;6.70;;;14.30;93.40;;;;;;5047489;28;20520;-74
2021/08/27 04:28:57;;;;;;;11.40;6.10;;;14.30;93.30;;;;;;5042995;28;20419;-73
2021/08/27 04:31:22;;;;;;;15.77;6.30;;;14.30;93.30;;;;;;5050746;28;20415;-72
2021/08/27 04:33:48;;;;;;;14.27;6.00;;;14.30;93.40;;;;;;5052320;28;20184;-72
2021/08/27 04:36:14;;;;;;;10.50;5.70;;;14.30;93.10;;;;;;5045670;28;20607;-73
2021/08/27 04:38:41;;;;;;;13.50;6.97;;;14.30;92.70;;;;;;5049259;28;20177;-72
2021/08/27 04:41:06;;;;;;;11.93;6.50;;;14.30;92.70;;;;;;5041160;28;20481;-73
2021/08/27 04:43:32;;;;;;;11.00;6.10;;;14.20;92.50;;;;;;5047385;28;20868;-72
2021/08/27 04:45:58;;;;;;;10.80;5.70;;;14.20;92.80;;;;;;5046019;28;20273;-73
2021/08/27 04:48:25;;;;;;;11.03;5.90;;;14.20;92.80;;;;;;5048314;28;20188;-71
2021/08/27 04:50:51;;;;;;;10.90;6.10;;;14.20;93.00;;;;;;5050275;28;20431;-73
2021/08/27 04:53:17;;;;;;;9.97;6.00;;;14.20;93.00;;;;;;5045113;28;20443;-74
2021/08/27 04:55:43;;;;;;;11.17;6.10;;;14.20;93.30;;;;;;5042423;28;20430;-75
2021/08/27 04:58:09;;;;;;;14.30;7.50;;;14.20;93.20;;;;;;5050255;28;20427;-74
2021/08/27 05:00:35;;;;;;;12.70;6.40;;;14.20;93.20;;;;;;5046337;28;20431;-74
2021/08/27 05:03:01;;;;;;;14.97;7.70;;;14.30;93.30;;;;;;5041892;28;20500;-74
2021/08/27 05:05:26;;;;;;;15.77;7.73;;;14.30;93.20;;;;;;5045720;28;21384;-73
2021/08/27 05:07:52;;;;;;;22.97;8.37;;;14.30;93.20;;;;;;5041931;28;20212;-75
2021/08/27 05:10:18;;;;;;;12.83;7.30;;;14.30;93.30;;;;;;5043587;28;20192;-74
2021/08/27 05:12:44;;;;;;;19.73;8.30;;;14.30;93.50;;;;;;5047629;28;20204;-74
2021/08/27 05:15:10;;;;;;;15.47;8.33;;;14.30;93.50;;;;;;5040528;28;20188;-74
2021/08/27 05:17:37;;;;;;;18.67;10.20;;;14.30;93.60;;;;;;5036805;28;20191;-73
2021/08/27 05:20:04;;;;;;;18.53;10.20;;;14.30;93.50;;;;;;5047174;28;20423;-72
2021/08/27 05:22:30;;;;;;;19.43;9.47;;;14.20;93.70;;;;;;5040159;28;20957;-73
2021/08/27 05:24:56;;;;;;;22.20;11.10;;;14.20;93.70;;;;;;5044272;28;20524;-74
2021/08/27 05:27:21;;;;;;;24.83;11.83;;;14.30;93.70;;;;;;5043875;28;20200;-72
2021/08/27 05:29:47;;;;;;;21.70;11.83;;;14.20;93.90;;;;;;5042322;28;20267;-72
2021/08/27 05:32:13;;;;;;;23.00;11.93;;;14.30;93.90;;;;;;5043201;28;20207;-72
2021/08/27 05:34:38;;;;;;;20.90;10.67;;;14.30;93.70;;;;;;5046469;28;20176;-72
2021/08/27 05:37:05;;;;;;;22.87;11.80;;;14.40;93.80;;;;;;5042847;28;20627;-72
2021/08/27 05:39:31;;;;;;;20.87;11.20;;;14.40;93.50;;;;;;5041969;28;20248;-73
2021/08/27 05:41:58;;;;;;;22.50;12.00;;;14.40;93.30;;;;;;5035398;28;20988;-74
2021/08/27 05:44:24;;;;;;;19.07;10.90;;;14.40;93.40;;;;;;5043459;28;20181;-72
2021/08/27 05:46:50;;;;;;;22.10;11.10;;;14.40;93.30;;;;;;5045817;28;20445;-72
2021/08/27 05:49:16;;;;;;;18.10;10.23;;;14.30;93.40;;;;;;5041097;28;20192;-72
2021/08/27 05:51:42;;;;;;;35.77;12.77;;;14.30;93.50;;;;;;5041592;28;20455;-71
2021/08/27 05:54:09;;;;;;;23.90;12.47;;;14.30;93.40;;;;;;5050765;28;20181;-71
2021/08/27 05:56:35;;;;;;;22.83;10.30;;;14.30;93.30;;;;;;5047162;28;20415;-73
2021/08/27 05:59:01;;;;;;;17.03;10.50;;;14.30;93.50;;;;;;5047561;28;20528;-72
2021/08/27 06:01:27;;;;;;;17.90;9.60;;;14.40;93.60;;;;;;5044765;28;20423;-71
2021/08/27 06:03:53;;;;;;;15.13;9.37;;;14.50;93.40;;;;;;5050653;28;20423;-71
2021/08/27 06:06:18;;;;;;;16.77;10.20;;;14.50;93.00;;;;;;5056680;28;20451;-70
2021/08/27 06:08:44;;;;;;;22.03;9.50;;;14.50;92.60;;;;;;5055312;28;20235;-72
2021/08/27 06:11:10;;;;;;;17.20;8.93;;;14.40;92.90;;;;;;5046265;28;20254;-73
2021/08/27 06:13:36;;;;;;;19.90;8.63;;;14.40;93.00;;;;;;5042980;28;20208;-72
2021/08/27 06:16:02;;;;;;;14.73;9.40;;;14.40;93.00;;;;;;5038964;28;20272;-72
2021/08/27 06:18:27;;;;;;;14.37;8.40;;;14.40;93.00;;;;;;5038653;28;20576;-73
2021/08/27 06:20:53;;;;;;;11.10;7.33;;;14.50;92.70;;;;;;5041995;28;20435;-72
2021/08/27 06:23:19;;;;;;;14.67;7.67;;;14.50;92.90;;;;;;5038442;28;20300;-72
2021/08/27 06:25:45;;;;;;;14.03;7.80;;;14.60;92.30;;;;;;5038980;28;20213;-73
2021/08/27 06:28:11;;;;;;;14.73;7.57;;;14.50;92.00;;;;;;5043440;28;20934;-72
2021/08/27 06:30:37;;;;;;;12.33;8.03;;;14.50;92.20;;;;;;5040317;28;20843;-75
2021/08/27 06:33:03;;;;;;;13.77;7.50;;;14.50;91.70;;;;;;5043065;28;20462;-72
2021/08/27 06:35:31;;;;;;;15.40;6.87;;;14.50;91.50;;;;;;5045519;28;20207;-72
2021/08/27 06:40:42;;;;;;;19.80;8.33;;;14.40;91.80;;;;;;5044261;28;20782;-72
2021/08/27 06:43:08;;;;;;;12.03;7.07;;;14.40;91.60;;;;;;5049639;28;20481;-71
2021/08/27 06:45:33;;;;;;;10.97;6.60;;;14.50;91.70;;;;;;5047823;28;20490;-72
2021/08/27 06:47:59;;;;;;;11.37;7.60;;;14.60;91.20;;;;;;5044585;28;20184;-72
2021/08/27 06:50:25;;;;;;;12.20;6.63;;;14.70;90.90;;;;;;5046842;28;20241;-72
2021/08/27 06:52:53;;;;;;;17.93;6.73;;;14.70;90.40;;;;;;5050179;28;20221;-72
2021/08/27 06:55:19;;;;;;;13.10;6.70;;;14.60;90.10;;;;;;5046287;28;20423;-73
2021/08/27 06:57:45;;;;;;;13.00;6.37;;;14.60;90.20;;;;;;5053332;28;20977;-73
2021/08/27 07:00:11;;;;;;;10.40;6.37;;;14.60;90.10;;;;;;5050899;28;20224;-73
2021/08/27 07:02:37;;;;;;;11.17;6.00;;;14.60;90.40;;;;;;5047454;28;20348;-72
2021/08/27 07:05:03;;;;;;;10.73;6.40;;;14.60;90.50;;;;;;5053221;28;20504;-73
2021/08/27 07:07:29;;;;;;;10.03;5.63;;;14.50;90.60;;;;;;5051879;28;20177;-72
2021/08/27 07:09:54;;;;;;;11.87;7.03;;;14.50;90.90;;;;;;5049003;28;20427;-72
2021/08/27 07:12:20;;;;;;;11.13;6.43;;;14.70;90.90;;;;;;5051542;28;20707;-72
2021/08/27 07:14:50;;;;;;;9.73;5.13;;;14.90;90.20;;;;;;5048366;28;20214;-73
2021/08/27 07:17:16;;;;;;;11.80;5.93;;;14.90;88.90;;;;;;5052487;28;20199;-73
2021/08/27 07:19:42;;;;;;;12.80;5.40;;;14.90;88.00;;;;;;5047315;28;20411;-72
2021/08/27 07:22:08;;;;;;;9.80;5.23;;;14.90;88.10;;;;;;5047189;28;20503;-72
2021/08/27 07:24:33;;;;;;;11.87;5.30;;;15.00;88.10;;;;;;5042756;28;20184;-74
2021/08/27 07:26:59;;;;;;;9.37;5.27;;;15.00;88.40;;;;;;5047495;28;20184;-72
2021/08/27 07:29:25;;;;;;;8.73;5.20;;;15.00;88.30;;;;;;5040530;28;20297;-73
2021/08/27 07:31:50;;;;;;;7.40;4.60;;;15.00;88.00;;;;;;5044510;28;20208;-73
2021/08/27 07:34:16;;;;;;;7.40;5.17;;;15.20;87.70;;;;;;5047659;28;20187;-72
2021/08/27 07:36:42;;;;;;;9.23;4.93;;;15.20;86.30;;;;;;5042855;28;20219;-73
2021/08/27 07:39:08;;;;;;;10.03;5.17;;;15.20;86.80;;;;;;5050531;28;20207;-73
2021/08/27 07:41:33;;;;;;;7.73;5.57;;;15.20;86.90;;;;;;5050306;28;20647;-72
2021/08/27 07:43:59;;;;;;;11.43;5.33;;;15.30;87.00;;;;;;5051328;28;20261;-73
2021/08/27 07:46:25;;;;;;;12.03;4.43;;;15.30;86.80;;;;;;5051513;28;20620;-72
2021/08/27 07:48:50;;;;;;;9.30;4.67;;;15.40;86.50;;;;;;5042849;28;20208;-74
2021/08/27 07:51:17;;;;;;;9.00;4.63;;;15.50;85.70;;;;;;5047947;28;20643;-72
2021/08/27 07:53:42;;;;;;;4.77;2.90;;;15.60;84.00;;;;;;5045235;28;20231;-74
2021/08/27 07:56:08;;;;;;;6.30;3.33;;;15.60;78.90;;;;;;5052352;28;20482;-73
2021/08/27 07:58:34;;;;;;;4.77;3.60;;;15.80;80.80;;;;;;5044288;28;20212;-73
2021/08/27 08:01:01;;;;;;;5.23;2.90;;;16.00;81.70;;;;;;5045797;28;20185;-74
2021/08/27 08:03:27;;;;;;;4.57;3.07;;;15.90;78.10;;;;;;5049784;28;20982;-72
2021/08/27 08:05:52;;;;;;;5.53;3.10;;;15.90;78.90;;;;;;5040202;28;20463;-74
2021/08/27 08:08:18;;;;;;;8.13;3.73;;;15.80;78.90;;;;;;5047995;28;20189;-73
2021/08/27 08:10:44;;;;;;;5.90;3.30;;;15.70;79.30;;;;;;5040228;28;20176;-73
2021/08/27 08:13:09;;;;;;;6.10;2.87;;;15.60;80.30;;;;;;5045420;28;20215;-73
2021/08/27 08:15:36;;;;;;;6.20;3.10;;;15.50;80.30;;;;;;5043593;28;20184;-74
2021/08/27 08:18:03;;;;;;;7.77;2.83;;;15.50;80.00;;;;;;5048028;28;20181;-72
2021/08/27 08:20:28;;;;;;;4.00;3.03;;;15.40;80.20;;;;;;5054639;28;20423;-73
2021/08/27 08:22:57;;;;;;;5.63;2.90;;;15.60;79.70;;;;;;5048007;28;21019;-73
2021/08/27 08:25:23;;;;;;;6.70;2.87;;;15.70;78.10;;;;;;5037550;28;20247;-74
2021/08/27 08:27:48;;;;;;;4.27;2.63;;;15.80;77.80;;;;;;5043565;28;20455;-73
2021/08/27 08:30:14;;;;;;;4.53;3.00;;;15.70;78.10;;;;;;5043510;28;20432;-74
2021/08/27 08:32:40;;;;;;;6.57;3.50;;;15.80;78.90;;;;;;5041917;28;20258;-73
2021/08/27 08:35:06;;;;;;;5.57;3.60;;;15.80;78.60;;;;;;5043368;28;20259;-73
2021/08/27 08:37:32;;;;;;;6.97;3.20;;;15.90;78.70;;;;;;5048930;28;20678;-73
2021/08/27 08:39:58;;;;;;;5.40;2.77;;;15.90;78.00;;;;;;5039358;28;20432;-72
2021/08/27 08:42:24;;;;;;;5.33;2.93;;;16.00;78.30;;;;;;5045748;28;20501;-72
2021/08/27 08:44:49;;;;;;;3.50;2.50;;;16.10;77.30;;;;;;5038035;28;20678;-73
2021/08/27 08:47:19;;;;;;;4.57;2.50;;;16.10;76.50;;;;;;5044615;28;20235;-72
2021/08/27 08:49:47;;;;;;;6.00;3.03;;;16.20;75.80;;;;;;5042648;28;20231;-73
2021/08/27 08:52:21;;;;;;;5.07;3.00;;;16.20;75.50;;;;;;5043715;28;20452;-73
2021/08/27 08:54:50;;;;;;;6.43;3.40;;;16.30;76.20;;;;;;5043221;28;20511;-73
2021/08/27 08:57:19;;;;;;;6.57;3.10;;;16.40;76.10;;;;;;5043189;28;20422;-73
2021/08/27 08:59:45;;;;;;;8.10;3.00;;;16.40;75.10;;;;;;5041206;28;20427;-72
2021/08/27 09:02:11;;;;;;;4.60;2.30;;;16.20;74.50;;;;;;5041679;28;20509;-73
2021/08/27 09:04:37;;;;;;;5.10;2.57;;;16.10;73.20;;;;;;5046002;28;20427;-72
2021/08/27 09:07:03;;;;;;;4.97;2.70;;;16.10;73.70;;;;;;5039992;28;20185;-73
2021/08/27 09:09:31;;;;;;;7.83;2.53;;;16.30;74.30;;;;;;5041998;28;20181;-72
2021/08/27 09:11:58;;;;;;;4.27;2.60;;;16.50;72.00;;;;;;5046108;28;20972;-73
2021/08/27 09:14:29;;;;;;;4.10;2.67;;;16.40;72.70;;;;;;5040567;28;20427;-73
2021/08/27 09:17:04;;;;;;;2.97;2.77;;;16.20;74.00;;;;;;5042786;28;20550;-73
2021/08/27 09:19:50;;;;;;;4.37;2.80;;;16.20;74.30;;;;;;5038062;28;20948;-73
2021/08/27 09:22:15;;;;;;;6.80;2.70;;;16.30;75.40;;;;;;5043205;28;20451;-72
2021/08/27 09:24:41;;;;;;;2.77;2.30;;;16.20;74.00;;;;;;5047245;28;20758;-73
2021/08/27 09:27:08;;;;;;;6.40;2.60;;;16.20;74.50;;;;;;5039708;28;20483;-72
2021/08/27 09:29:44;;;;;;;4.33;2.90;;;16.20;75.10;;;;;;5044195;28;20204;-72
2021/08/27 09:32:28;;;;;;;4.50;2.57;;;16.20;75.40;;;;;;5036481;28;20458;-74
2021/08/27 09:35:08;;;;;;;5.47;2.80;;;16.50;74.60;;;;;;5040513;28;20495;-73
2021/08/27 09:37:39;;;;;;;4.83;2.30;;;16.80;72.30;;;;;;5042082;28;20467;-74
2021/08/27 09:40:07;;;;;;;2.70;2.30;;;17.00;69.70;;;;;;5039423;28;20434;-72
2021/08/27 09:42:42;;;;;;;5.23;2.10;;;16.90;70.20;;;;;;5042110;28;20455;-74
2021/08/27 09:45:08;;;;;;;7.27;2.50;;;16.70;71.80;;;;;;5044216;28;20462;-73
2021/08/27 09:47:34;;;;;;;4.77;2.67;;;16.50;72.30;;;;;;5042557;28;20779;-75
2021/08/27 09:50:21;;;;;;;6.70;2.50;;;16.60;72.70;;;;;;5043284;28;20431;-73
2021/08/27 09:52:55;;;;;;;2.77;2.53;;;16.90;70.80;;;;;;5037101;28;20295;-74
2021/08/27 09:55:21;;;;;;;7.93;2.40;;;16.80;70.80;;;;;;5037982;28;20438;-72
2021/08/27 09:57:47;;;;;;;4.73;2.60;;;16.70;70.20;;;;;;5042934;28;20426;-73
2021/08/27 10:00:21;;;;;;;6.00;3.03;;;16.70;70.50;;;;;;5035295;28;20454;-72
2021/08/27 10:02:48;;;;;;;3.00;2.77;;;16.60;71.00;;;;;;5031205;28;20643;-73
2021/08/27 10:05:14;;;;;;;6.30;3.10;;;16.80;71.60;;;;;;5039374;28;20491;-73
2021/08/27 10:07:41;;;;;;;7.27;3.77;;;16.90;71.60;;;;;;5039825;28;20468;-73
2021/08/27 10:10:10;;;;;;;8.07;3.07;;;17.10;71.10;;;;;;5042523;28;20502;-73
2021/08/27 10:12:38;;;;;;;7.07;3.13;;;17.10;69.10;;;;;;5039213;28;20479;-72
2021/08/27 10:15:07;;;;;;;4.70;3.20;;;17.10;69.50;;;;;;5041907;28;20864;-72
2021/08/27 10:17:35;;;;;;;5.17;3.73;;;17.30;68.90;;;;;;5036131;28;20466;-73
2021/08/27 10:20:04;;;;;;;6.73;4.10;;;17.50;69.10;;;;;;5039659;28;20481;-74
2021/08/27 10:22:30;;;;;;;6.83;4.40;;;17.70;68.90;;;;;;5041955;28;20446;-73
2021/08/27 10:24:56;;;;;;;9.17;4.30;;;17.80;69.10;;;;;;5041830;28;20472;-73
2021/08/27 10:27:22;;;;;;;6.23;3.93;;;17.70;70.10;;;;;;5034262;28;20187;-73
2021/08/27 10:29:50;;;;;;;4.17;3.63;;;17.50;68.30;;;;;;5037953;28;20792;-74
2021/08/27 10:32:38;;;;;;;5.60;2.97;;;17.20;68.50;;;;;;5039639;28;20970;-73
2021/08/27 10:35:05;;;;;;;4.70;3.03;;;17.20;68.90;;;;;;5041101;28;20459;-73
2021/08/27 10:37:45;;;;;;;6.97;3.00;;;17.30;67.00;;;;;;5049557;28;20422;-73
2021/08/27 10:40:23;;;;;;;6.47;3.50;;;17.50;66.10;;;;;;5053348;28;20819;-72
2021/08/27 10:43:00;;;;;;;4.67;3.07;;;17.40;66.60;;;;;;5037680;28;20454;-74
2021/08/27 10:45:41;;;;;;;4.27;3.13;;;17.50;67.50;;;;;;5040898;28;20490;-73
2021/08/27 10:48:09;;;;;;;6.90;4.47;;;17.60;68.80;;;;;;5045664;28;20966;-74
2021/08/27 10:50:35;;;;;;;5.90;4.00;;;17.70;69.40;;;;;;5045887;28;20421;-72
2021/08/27 10:53:19;;;;;;;8.97;3.70;;;17.60;68.60;;;;;;5044947;28;20467;-74
2021/08/27 10:55:46;;;;;;;4.23;3.03;;;17.50;67.90;;;;;;5042401;28;20834;-73
2021/08/27 10:58:14;;;;;;;3.60;2.60;;;17.60;67.50;;;;;;5043951;28;20430;-73
2021/08/27 11:00:52;;;;;;;8.40;3.07;;;18.20;62.20;;;;;;5052354;28;20426;-74
2021/08/27 11:03:18;;;;;;;4.90;2.60;;;18.80;61.70;;;;;;5042574;28;20442;-71
2021/08/27 11:05:49;;;;;;;4.27;2.67;;;19.30;57.70;;;;;;5052638;28;20560;-73
2021/08/27 11:08:31;;;;;;;3.70;2.33;;;19.50;57.80;;;;;;5049003;28;20424;-74
2021/08/27 11:11:15;;;;;;;4.00;2.60;;;19.50;57.20;;;;;;5046778;28;21147;-74
2021/08/27 11:13:42;;;;;;;3.80;2.90;;;19.30;59.50;;;;;;5041290;28;20436;-72
2021/08/27 11:16:22;;;;;;;5.60;3.27;;;19.00;60.70;;;;;;5041758;28;20545;-74
2021/08/27 11:18:52;;;;;;;4.33;3.07;;;18.60;63.70;;;;;;5052934;28;20423;-72
2021/08/27 11:21:37;;;;;;;6.87;2.80;;;18.20;65.30;;;;;;5048030;28;20423;-72
2021/08/27 11:24:22;;;;;;;2.93;2.47;;;18.00;64.10;;;;;;5041681;28;20429;-73
2021/08/27 11:27:02;;;;;;;4.33;2.80;;;17.70;64.50;;;;;;5043071;28;20495;-74
2021/08/27 11:29:35;;;;;;;4.17;3.10;;;17.50;65.60;;;;;;5041220;28;20778;-73
2021/08/27 11:32:17;;;;;;;3.53;2.73;;;17.40;65.40;;;;;;5045299;28;20452;-73
2021/08/27 11:34:54;;;;;;;8.13;3.07;;;17.50;66.00;;;;;;5043475;28;20848;-72
2021/08/27 11:37:21;;;;;;;7.37;3.50;;;17.60;65.60;;;;;;5040770;28;20425;-72
2021/08/27 11:39:48;;;;;;;9.00;3.70;;;17.60;66.10;;;;;;5046847;28;20788;-72
2021/08/27 11:42:16;;;;;;;4.07;2.70;;;17.60;66.90;;;;;;5051213;28;20465;-72
2021/08/27 11:44:43;;;;;;;8.33;3.07;;;17.70;67.20;;;;;;5055105;28;20406;-75
2021/08/27 11:47:12;;;;;;;8.90;3.40;;;18.00;66.70;;;;;;5054697;28;20415;-72
2021/08/27 11:49:45;;;;;;;6.00;3.30;;;18.20;66.10;;;;;;5047886;28;21028;-74
2021/08/27 11:52:25;;;;;;;9.17;3.80;;;18.80;65.60;;;;;;5048647;28;20903;-74
2021/08/27 11:54:59;;;;;;;5.80;3.43;;;19.50;63.20;;;;;;5042100;28;20451;-73
2021/08/27 11:57:25;;;;;;;5.70;3.43;;;19.80;62.30;;;;;;5042321;28;20510;-74
2021/08/27 11:59:51;;;;;;;5.00;2.90;;;19.80;62.90;;;;;;5049636;28;20520;-72
2021/08/27 12:02:19;;;;;;;5.10;2.87;;;19.90;60.40;;;;;;5049478;28;20218;-73
2021/08/27 12:04:54;;;;;;;4.70;2.40;;;20.00;60.10;;;;;;5049531;28;20182;-73
2021/08/27 12:07:20;;;;;;;4.30;2.70;;;19.80;59.90;;;;;;5042718;28;20416;-72
2021/08/27 12:10:06;;;;;;;4.57;3.07;;;19.10;62.80;;;;;;5039164;28;20436;-72
2021/08/27 12:12:33;;;;;;;8.83;2.97;;;18.70;64.50;;;;;;5043835;28;20624;-73
2021/08/27 12:14:59;;;;;;;7.20;2.87;;;18.50;64.10;;;;;;5047660;28;20476;-74
2021/08/27 12:17:27;;;;;;;3.70;2.77;;;18.00;66.40;;;;;;5051753;28;20518;-72
2021/08/27 12:19:56;;;;;;;8.83;2.90;;;17.80;66.90;;;;;;5051639;28;20418;-73
2021/08/27 12:22:24;;;;;;;5.60;2.63;;;18.00;66.90;;;;;;5051583;28;20442;-73
2021/08/27 12:24:53;;;;;;;7.07;2.80;;;18.30;65.30;;;;;;5049635;28;20811;-74
2021/08/27 12:27:20;;;;;;;3.03;2.57;;;18.80;64.70;;;;;;5050659;28;20426;-74
2021/08/27 12:29:45;;;;;;;4.83;2.80;;;18.70;62.90;;;;;;5049090;28;20415;-71
2021/08/27 12:32:17;;;;;;;4.10;2.23;;;18.80;64.10;;;;;;5043816;28;20443;-74
2021/08/27 12:34:47;;;;;;;3.70;2.20;;;18.50;61.90;;;;;;5047891;28;20415;-72
2021/08/27 12:37:16;;;;;;;3.40;2.17;;;18.20;62.30;;;;;;5040259;28;20420;-74
2021/08/27 12:39:42;;;;;;;7.17;2.53;;;18.00;64.40;;;;;;5046010;28;20948;-71
2021/08/27 12:42:16;;;;;;;4.00;2.40;;;18.30;64.20;;;;;;5039085;28;20436;-72
2021/08/27 12:45:06;;;;;;;6.00;2.37;;;18.40;64.20;;;;;;5043130;28;20422;-73
2021/08/27 12:47:35;;;;;;;3.73;2.30;;;18.70;62.90;;;;;;5039202;28;20456;-72
2021/08/27 12:50:07;;;;;;;6.73;2.63;;;19.20;62.30;;;;;;5045477;28;20481;-73
2021/08/27 12:52:33;;;;;;;5.53;2.77;;;19.40;61.70;;;;;;5037054;28;20449;-73
2021/08/27 12:54:59;;;;;;;4.30;2.07;;;19.50;60.10;;;;;;5046293;28;20427;-72